createdAt,value
2019-01-20T00:00:11.492Z,82.39
2019-01-20T00:01:10.003Z,82.25
2019-01-20T00:02:08.682Z,82.25
2019-01-20T00:03:07.309Z,81.77
2019-01-20T00:04:05.875Z,81.82
2019-01-20T00:05:04.437Z,82.1
2019-01-20T00:06:03.124Z,81.59
2019-01-20T00:07:01.679Z,81.59
2019-01-20T00:08:00.279Z,82.06
2019-01-20T00:08:59.142Z,82.25
2019-01-20T00:09:57.700Z,81.87
2019-01-20T00:10:56.229Z,82.25
2019-01-20T00:11:55.014Z,81.87
2019-01-20T00:12:53.552Z,82.25
2019-01-20T00:13:52.076Z,82.15
2019-01-20T00:14:50.643Z,82.72
2019-01-20T00:15:49.309Z,82.82
2019-01-20T00:16:47.852Z,82.15
2019-01-20T00:17:46.384Z,82.44
2019-01-20T00:18:44.895Z,82.06
2019-01-20T00:19:43.456Z,81.87
2019-01-20T00:20:41.986Z,81.77
2019-01-20T00:21:40.793Z,81.96
2019-01-20T00:22:39.461Z,81.49
2019-01-20T00:23:38.229Z,81.96
2019-01-20T00:24:36.844Z,81.87
2019-01-20T00:25:35.462Z,81.96
2019-01-20T00:26:34.000Z,82.72
2019-01-20T00:27:32.520Z,82.82
2019-01-20T00:28:31.071Z,82.82
2019-01-20T00:29:29.616Z,83.1
2019-01-20T00:30:28.154Z,82.63
2019-01-20T00:31:26.855Z,82.63
2019-01-20T00:32:25.397Z,82.72
2019-01-20T00:33:23.927Z,82.82
2019-01-20T00:34:22.762Z,82.63
2019-01-20T00:35:21.289Z,83.29
2019-01-20T00:36:19.822Z,83.01
2019-01-20T00:37:18.410Z,83.01
2019-01-20T00:38:17.056Z,82.72
2019-01-20T00:39:15.622Z,82.44
2019-01-20T00:40:14.214Z,83.48
2019-01-20T00:41:12.746Z,83.48
2019-01-20T00:42:11.288Z,82.91
2019-01-20T00:43:09.822Z,83.39
2019-01-20T00:44:08.329Z,83.2
2019-01-20T00:45:06.883Z,83.76
2019-01-20T00:46:05.511Z,83.86
2019-01-20T00:47:04.138Z,83.95
2019-01-20T00:48:02.799Z,83.95
2019-01-20T00:49:01.490Z,84.14
2019-01-20T00:50:00.004Z,83.39
2019-01-20T00:50:58.714Z,84.14
2019-01-20T00:51:57.335Z,83.1
2019-01-20T00:52:55.871Z,83.2
2019-01-20T00:53:54.410Z,83.29
2019-01-20T00:54:52.966Z,83.39
2019-01-20T00:55:51.506Z,82.82
2019-01-20T00:56:50.142Z,83.48
2019-01-20T00:57:48.930Z,83.48
2019-01-20T00:58:47.483Z,83.67
2019-01-20T00:59:46.039Z,83.39
2019-01-20T01:00:44.879Z,83.39
2019-01-20T01:01:43.499Z,83.2
2019-01-20T01:02:42.020Z,83.86
2019-01-20T01:03:40.574Z,83.67
2019-01-20T01:04:39.142Z,83.29
2019-01-20T01:05:37.661Z,83.67
2019-01-20T01:06:36.217Z,83.48
2019-01-20T01:07:34.883Z,83.76
2019-01-20T01:08:33.487Z,83.95
2019-01-20T01:09:32.019Z,83.48
2019-01-20T01:10:30.650Z,83.76
2019-01-20T01:11:31.642Z,83.58
2019-01-20T01:12:27.877Z,83.48
2019-01-20T01:13:26.552Z,83.2
2019-01-20T01:14:25.227Z,83.1
2019-01-20T01:15:23.775Z,83.01
2019-01-20T01:16:22.324Z,83.1
2019-01-20T01:17:20.860Z,82.72
2019-01-20T01:18:19.437Z,82.63
2019-01-20T01:19:17.958Z,82.15
2019-01-20T01:20:16.863Z,82.82
2019-01-20T01:21:15.528Z,82.63
2019-01-20T01:22:14.092Z,82.72
2019-01-20T01:23:12.743Z,82.06
2019-01-20T01:24:11.347Z,82.53
2019-01-20T01:25:09.893Z,82.06
2019-01-20T01:26:08.909Z,82.53
2019-01-20T01:27:07.456Z,82.72
2019-01-20T01:28:06.018Z,82.44
2019-01-20T01:29:04.783Z,82.06
2019-01-20T01:30:03.518Z,82.44
2019-01-20T01:31:02.045Z,82.34
2019-01-20T01:32:00.595Z,81.77
2019-01-20T01:34:41.153Z,81.87
2019-01-20T01:35:39.682Z,81.87
2019-01-20T01:36:38.216Z,81.77
2019-01-20T01:37:36.833Z,82.63
2019-01-20T01:38:35.461Z,82.34
2019-01-20T01:39:33.988Z,82.25
2019-01-20T01:40:32.536Z,82.06
2019-01-20T01:41:31.053Z,82.34
2019-01-20T01:42:29.654Z,82.15
2019-01-20T01:43:28.252Z,81.96
2019-01-20T01:44:26.861Z,82.63
2019-01-20T01:45:25.424Z,82.15
2019-01-20T01:46:23.950Z,81.77
2019-01-20T01:47:22.613Z,82.63
2019-01-20T01:48:21.287Z,82.44
2019-01-20T01:49:19.791Z,82.63
2019-01-20T01:50:18.375Z,82.15
2019-01-20T01:51:16.989Z,82.72
2019-01-20T01:52:15.557Z,82.63
2019-01-20T01:53:14.194Z,82.25
2019-01-20T01:54:12.758Z,82.63
2019-01-20T01:55:11.408Z,82.63
2019-01-20T01:56:09.961Z,83.39
2019-01-20T01:57:08.715Z,82.63
2019-01-20T01:58:07.290Z,82.72
2019-01-20T01:59:05.817Z,81.96
2019-01-20T02:00:04.421Z,82.25
2019-01-20T02:02:20.543Z,82.06
2019-01-20T02:03:19.086Z,81.59
2019-01-20T02:04:17.628Z,81.77
2019-01-20T02:05:16.177Z,81.96
2019-01-20T02:06:15.015Z,81.77
2019-01-20T02:07:13.563Z,81.96
2019-01-20T02:08:12.105Z,81.96
2019-01-20T02:09:10.889Z,82.15
2019-01-20T02:10:09.467Z,81.77
2019-01-20T02:11:08.034Z,81.63
2019-01-20T02:12:06.558Z,81.87
2019-01-20T02:13:05.103Z,82.15
2019-01-20T02:14:03.633Z,81.77
2019-01-20T02:15:02.156Z,82.15
2019-01-20T02:16:00.659Z,81.21
2019-01-20T02:16:59.246Z,81.77
2019-01-20T02:17:57.751Z,81.59
2019-01-20T02:18:56.286Z,82.34
2019-01-20T02:19:54.812Z,81.96
2019-01-20T02:20:53.372Z,82.25
2019-01-20T02:21:51.893Z,82.44
2019-01-20T02:22:50.751Z,82.25
2019-01-20T02:23:49.446Z,81.87
2019-01-20T02:24:48.061Z,82.15
2019-01-20T02:25:46.757Z,81.96
2019-01-20T02:26:45.333Z,82.01
2019-01-20T02:27:43.873Z,81.87
2019-01-20T02:28:42.430Z,81.87
2019-01-20T02:29:40.982Z,81.3
2019-01-20T02:30:39.511Z,81.21
2019-01-20T02:31:38.040Z,82.15
2019-01-20T02:32:36.608Z,82.06
2019-01-20T02:33:35.171Z,81.87
2019-01-20T02:34:33.708Z,81.96
2019-01-20T02:35:32.495Z,81.87
2019-01-20T02:36:31.345Z,82.63
2019-01-20T02:37:29.875Z,82.44
2019-01-20T02:38:28.391Z,82.44
2019-01-20T02:39:27.044Z,81.77
2019-01-20T02:40:25.606Z,81.96
2019-01-20T02:41:24.146Z,81.77
2019-01-20T02:42:22.685Z,81.59
2019-01-20T02:43:21.209Z,81.3
2019-01-20T02:44:19.727Z,81.4
2019-01-20T02:45:18.259Z,81.59
2019-01-20T02:46:16.793Z,81.21
2019-01-20T02:47:15.300Z,81.77
2019-01-20T02:48:13.829Z,81.3
2019-01-20T02:49:12.377Z,81.49
2019-01-20T02:50:10.975Z,80.64
2019-01-20T02:51:09.524Z,81.3
2019-01-20T02:52:08.084Z,81.77
2019-01-20T02:53:06.822Z,81.96
2019-01-20T02:54:05.529Z,81.77
2019-01-20T02:55:04.082Z,81.87
2019-01-20T02:56:02.770Z,82.15
2019-01-20T02:57:01.421Z,82.06
2019-01-20T02:58:01.941Z,82.15
2019-01-20T02:58:58.517Z,81.87
2019-01-20T02:59:57.054Z,82.34
2019-01-20T03:00:55.772Z,82.63
2019-01-20T03:01:54.403Z,82.15
2019-01-20T03:02:53.047Z,82.25
2019-01-20T03:03:51.665Z,82.25
2019-01-20T03:04:50.233Z,82.44
2019-01-20T03:05:48.859Z,82.53
2019-01-20T03:06:47.611Z,82.15
2019-01-20T03:07:46.161Z,82.06
2019-01-20T03:08:44.990Z,81.77
2019-01-20T03:09:43.565Z,81.77
2019-01-20T03:10:42.094Z,81.77
2019-01-20T03:11:40.919Z,81.77
2019-01-20T03:12:39.540Z,81.68
2019-01-20T03:13:38.094Z,81.68
2019-01-20T03:14:36.650Z,81.77
2019-01-20T03:15:35.221Z,81.68
2019-01-20T03:16:33.774Z,81.87
2019-01-20T03:17:32.319Z,81.87
2019-01-20T03:18:30.842Z,81.87
2019-01-20T03:19:29.375Z,81.87
2019-01-20T03:20:27.923Z,81.96
2019-01-20T03:21:26.455Z,81.87
2019-01-20T03:22:25.272Z,81.49
2019-01-20T03:23:23.978Z,80.83
2019-01-20T03:24:22.644Z,81.12
2019-01-20T03:25:21.326Z,80.93
2019-01-20T03:26:19.861Z,80.55
2019-01-20T03:27:18.521Z,80.74
2019-01-20T03:28:17.346Z,80.93
2019-01-20T03:29:15.896Z,80.45
2019-01-20T03:30:14.499Z,80.55
2019-01-20T03:31:13.290Z,80.93
2019-01-20T03:32:11.831Z,81.02
2019-01-20T03:33:10.373Z,81.21
2019-01-20T03:34:09.008Z,80.83
2019-01-20T03:35:07.550Z,81.12
2019-01-20T03:36:06.113Z,80.83
2019-01-20T03:37:04.660Z,81.4
2019-01-20T03:38:03.246Z,80.93
2019-01-20T03:39:01.777Z,80.74
2019-01-20T03:40:00.315Z,80.83
2019-01-20T03:40:59.109Z,80.55
2019-01-20T03:41:57.664Z,80.64
2019-01-20T03:42:56.194Z,80.55
2019-01-20T03:43:54.953Z,80.26
2019-01-20T03:44:53.630Z,80.26
2019-01-20T03:45:52.183Z,80.36
2019-01-20T03:46:50.714Z,80.55
2019-01-20T03:47:49.257Z,80.36
2019-01-20T03:48:47.912Z,80.26
2019-01-20T03:49:46.746Z,80.17
2019-01-20T03:50:45.419Z,80.45
2019-01-20T03:51:43.966Z,80.26
2019-01-20T03:52:42.584Z,80.26
2019-01-20T03:53:41.137Z,80.3
2019-01-20T03:54:39.765Z,80.64
2019-01-20T03:55:38.342Z,80.45
2019-01-20T03:56:36.846Z,80.26
2019-01-20T03:57:35.465Z,80.74
2019-01-20T03:58:34.016Z,80.83
2019-01-20T03:59:32.530Z,80.45
2019-01-20T04:00:31.056Z,80.74
2019-01-20T04:01:29.605Z,80.83
2019-01-20T04:02:28.108Z,81.02
2019-01-20T04:03:26.733Z,81.12
2019-01-20T04:04:25.386Z,81.02
2019-01-20T04:05:23.963Z,80.83
2019-01-20T04:06:22.556Z,80.83
2019-01-20T04:07:21.391Z,80.83
2019-01-20T04:08:19.937Z,80.83
2019-01-20T04:09:18.485Z,80.83
2019-01-20T04:10:17.091Z,80.83
2019-01-20T04:11:15.643Z,81.12
2019-01-20T04:12:20.414Z,80.93
2019-01-20T04:13:12.709Z,80.83
2019-01-20T04:14:11.254Z,81.02
2019-01-20T04:15:09.799Z,80.93
2019-01-20T04:16:08.346Z,81.12
2019-01-20T04:17:07.300Z,80.55
2019-01-20T04:18:05.836Z,80.68
2019-01-20T04:19:04.398Z,80.45
2019-01-20T04:20:03.064Z,80.45
2019-01-20T04:21:01.775Z,80.26
2019-01-20T04:22:00.296Z,80.45
2019-01-20T04:22:58.862Z,80.74
2019-01-20T04:23:57.517Z,80.83
2019-01-20T04:24:56.184Z,81.3
2019-01-20T04:25:54.862Z,81.49
2019-01-20T04:26:53.540Z,81.49
2019-01-20T04:27:52.075Z,82.06
2019-01-20T04:28:50.719Z,81.4
2019-01-20T04:29:49.422Z,81.4
2019-01-20T04:30:48.169Z,81.3
2019-01-20T04:31:46.964Z,82.34
2019-01-20T04:32:45.639Z,82.44
2019-01-20T04:33:44.187Z,82.06
2019-01-20T04:34:42.810Z,82.06
2019-01-20T04:35:41.447Z,81.59
2019-01-20T04:36:40.009Z,82.25
2019-01-20T04:37:38.575Z,81.87
2019-01-20T04:38:37.127Z,81.49
2019-01-20T04:39:35.721Z,81.49
2019-01-20T04:40:34.228Z,81.4
2019-01-20T04:41:33.045Z,80.77
2019-01-20T04:42:31.626Z,80.83
2019-01-20T04:43:30.159Z,81.12
2019-01-20T04:44:29.011Z,81.02
2019-01-20T04:45:27.655Z,80.87
2019-01-20T04:46:26.186Z,80.96
2019-01-20T04:47:24.746Z,80.74
2019-01-20T04:48:23.295Z,80.83
2019-01-20T04:49:21.843Z,81.21
2019-01-20T04:50:20.371Z,80.55
2019-01-20T04:51:18.979Z,81.02
2019-01-20T04:52:17.691Z,80.55
2019-01-20T04:53:16.230Z,80.64
2019-01-20T04:54:14.823Z,80.64
2019-01-20T04:55:13.462Z,80.55
2019-01-20T04:56:12.013Z,80.74
2019-01-20T04:57:10.665Z,81.21
2019-01-20T04:58:09.452Z,80.93
2019-01-20T04:59:07.998Z,80.93
2019-01-20T05:00:06.980Z,80.83
2019-01-20T05:01:05.615Z,80.93
2019-01-20T05:02:04.159Z,81.3
2019-01-20T05:03:02.787Z,80.83
2019-01-20T05:04:01.437Z,81.49
2019-01-20T05:04:59.983Z,81.59
2019-01-20T05:05:58.526Z,81.21
2019-01-20T05:06:57.077Z,81.68
2019-01-20T05:07:55.624Z,81.49
2019-01-20T05:08:54.160Z,81.3
2019-01-20T05:09:52.704Z,81.49
2019-01-20T05:10:51.355Z,81.4
2019-01-20T05:11:49.957Z,81.49
2019-01-20T05:12:48.613Z,81.59
2019-01-20T05:13:47.403Z,81.02
2019-01-20T05:14:45.939Z,81.12
2019-01-20T05:15:44.468Z,80.93
2019-01-20T05:16:43.128Z,81.12
2019-01-20T05:17:41.792Z,81.02
2019-01-20T05:18:40.338Z,81.02
2019-01-20T05:19:39.204Z,80.83
2019-01-20T05:20:37.746Z,80.74
2019-01-20T05:21:36.280Z,81.4
2019-01-20T05:22:34.958Z,81.3
2019-01-20T05:23:33.479Z,81.4
2019-01-20T05:24:32.016Z,81.49
2019-01-20T05:25:30.584Z,81.4
2019-01-20T05:26:29.276Z,81.77
2019-01-20T05:27:27.820Z,82.15
2019-01-20T05:28:26.335Z,82.15
2019-01-20T05:29:24.873Z,81.87
2019-01-20T05:30:23.535Z,81.87
2019-01-20T05:31:22.054Z,82.15
2019-01-20T05:32:20.909Z,81.68
2019-01-20T05:33:19.641Z,81.49
2019-01-20T05:34:18.157Z,81.59
2019-01-20T05:35:16.864Z,82.06
2019-01-20T05:36:15.517Z,81.77
2019-01-20T05:37:14.061Z,81.68
2019-01-20T05:38:12.606Z,81.49
2019-01-20T05:39:11.152Z,82.06
2019-01-20T05:40:09.687Z,81.87
2019-01-20T05:41:08.279Z,81.77
2019-01-20T05:42:07.073Z,82.15
2019-01-20T05:43:05.689Z,81.3
2019-01-20T05:44:04.225Z,81.49
2019-01-20T05:45:02.889Z,81.87
2019-01-20T05:46:03.537Z,81.77
2019-01-20T05:47:02.084Z,81.77
2019-01-20T05:48:00.594Z,81.77
2019-01-20T05:48:59.154Z,82.72
2019-01-20T05:49:57.714Z,82.15
2019-01-20T05:50:57.086Z,81.87
2019-01-20T05:51:55.681Z,81.87
2019-01-20T05:52:54.205Z,82.44
2019-01-20T05:53:52.783Z,82.25
2019-01-20T05:54:51.296Z,82.34
2019-01-20T05:55:49.828Z,82.25
2019-01-20T05:56:48.378Z,82.63
2019-01-20T05:57:46.915Z,82.63
2019-01-20T05:58:45.470Z,82.91
2019-01-20T05:59:44.022Z,82.72
2019-01-20T06:00:42.822Z,82.44
2019-01-20T06:01:41.498Z,82.63
2019-01-20T06:02:40.040Z,83.29
2019-01-20T06:03:38.707Z,82.82
2019-01-20T06:04:37.380Z,83.01
2019-01-20T06:05:35.941Z,82.82
2019-01-20T06:06:34.493Z,83.1
2019-01-20T06:07:33.038Z,83.2
2019-01-20T06:08:31.627Z,82.53
2019-01-20T06:09:30.184Z,82.72
2019-01-20T06:10:28.983Z,82.63
2019-01-20T06:11:27.677Z,82.25
2019-01-20T06:12:26.204Z,81.96
2019-01-20T06:13:24.865Z,82.06
2019-01-20T06:14:23.538Z,82.72
2019-01-20T06:15:22.086Z,82.06
2019-01-20T06:16:20.634Z,82.44
2019-01-20T06:17:19.196Z,82.82
2019-01-20T06:18:17.727Z,82.72
2019-01-20T06:19:16.272Z,82.44
2019-01-20T06:20:14.813Z,82.53
2019-01-20T06:21:13.499Z,82.82
2019-01-20T06:22:12.059Z,82.34
2019-01-20T06:23:10.683Z,82.82
2019-01-20T06:24:09.503Z,83.29
2019-01-20T06:25:08.025Z,83.39
2019-01-20T06:26:06.570Z,82.72
2019-01-20T06:27:05.236Z,83.01
2019-01-20T06:28:03.847Z,83.29
2019-01-20T06:29:02.346Z,83.2
2019-01-20T06:30:00.923Z,83.01
2019-01-20T06:30:59.595Z,82.91
2019-01-20T06:31:58.128Z,82.82
2019-01-20T06:32:56.837Z,83.2
2019-01-20T06:33:55.443Z,83.01
2019-01-20T06:34:53.978Z,82.91
2019-01-20T06:35:52.647Z,83.2
2019-01-20T06:36:51.360Z,82.82
2019-01-20T06:37:49.907Z,82.82
2019-01-20T06:38:48.450Z,82.25
2019-01-20T06:39:47.058Z,82.34
2019-01-20T06:40:45.591Z,82.44
2019-01-20T06:41:44.139Z,82.87
2019-01-20T06:42:42.942Z,82.63
2019-01-20T06:43:41.593Z,82.68
2019-01-20T06:44:40.131Z,82.82
2019-01-20T06:45:38.770Z,83.01
2019-01-20T06:46:37.416Z,83.01
2019-01-20T06:47:35.974Z,83.58
2019-01-20T06:48:34.507Z,83.39
2019-01-20T06:49:33.120Z,83.2
2019-01-20T06:50:31.692Z,83.01
2019-01-20T06:51:30.229Z,82.53
2019-01-20T06:52:28.763Z,82.25
2019-01-20T06:53:27.481Z,82.63
2019-01-20T06:54:26.040Z,82.78
2019-01-20T06:55:24.780Z,83.34
2019-01-20T06:56:23.483Z,82.82
2019-01-20T06:57:22.040Z,82.63
2019-01-20T06:58:20.580Z,83.29
2019-01-20T06:59:19.248Z,82.53
2019-01-20T07:00:17.962Z,82.34
2019-01-20T07:01:16.578Z,82.82
2019-01-20T07:02:15.408Z,82.82
2019-01-20T07:03:13.948Z,82.82
2019-01-20T07:04:12.653Z,82.34
2019-01-20T07:05:11.344Z,82.44
2019-01-20T07:06:09.865Z,82.72
2019-01-20T07:07:08.399Z,82.63
2019-01-20T07:08:06.945Z,82.53
2019-01-20T07:09:05.483Z,82.44
2019-01-20T07:10:04.096Z,81.96
2019-01-20T07:11:02.959Z,82.06
2019-01-20T07:12:01.615Z,82.06
2019-01-20T07:13:00.148Z,82.25
2019-01-20T07:13:58.815Z,81.59
2019-01-20T07:14:57.564Z,82.15
2019-01-20T07:15:56.111Z,81.87
2019-01-20T07:16:54.648Z,81.3
2019-01-20T07:17:53.172Z,81.3
2019-01-20T07:18:51.714Z,81.3
2019-01-20T07:19:50.256Z,81.49
2019-01-20T07:20:49.176Z,81.87
2019-01-20T07:21:47.713Z,81.77
2019-01-20T07:22:46.259Z,82.06
2019-01-20T07:23:44.927Z,81.21
2019-01-20T07:24:43.614Z,81.4
2019-01-20T07:25:42.159Z,81.3
2019-01-20T07:26:40.689Z,80.74
2019-01-20T07:27:39.309Z,81.59
2019-01-20T07:28:37.877Z,81.3
2019-01-20T07:29:36.382Z,81.3
2019-01-20T07:30:34.937Z,81.4
2019-01-20T07:31:33.554Z,81.12
2019-01-20T07:32:32.122Z,81.02
2019-01-20T07:33:30.878Z,81.4
2019-01-20T07:34:29.544Z,81.21
2019-01-20T07:35:28.071Z,81.02
2019-01-20T07:36:26.723Z,81.4
2019-01-20T07:37:25.554Z,81.59
2019-01-20T07:38:24.112Z,80.74
2019-01-20T07:39:22.924Z,81.02
2019-01-20T07:40:21.590Z,80.93
2019-01-20T07:41:20.131Z,81.12
2019-01-20T07:42:18.880Z,80.87
2019-01-20T07:43:17.545Z,80.45
2019-01-20T07:44:16.438Z,80.68
2019-01-20T07:45:15.316Z,80.68
2019-01-20T07:46:13.859Z,80.36
2019-01-20T07:47:12.475Z,80.74
2019-01-20T07:48:11.025Z,80.64
2019-01-20T07:49:09.612Z,81.12
2019-01-20T07:50:08.171Z,81.12
2019-01-20T07:51:06.700Z,80.74
2019-01-20T07:52:05.272Z,80.45
2019-01-20T07:53:03.785Z,80.83
2019-01-20T07:54:02.340Z,80.93
2019-01-20T07:55:00.961Z,80.55
2019-01-20T07:55:59.584Z,80.55
2019-01-20T07:56:58.703Z,80.74
2019-01-20T07:57:57.222Z,80.4
2019-01-20T07:58:55.807Z,80.58
2019-01-20T07:59:54.340Z,80.3
2019-01-20T08:00:52.870Z,80.17
2019-01-20T08:01:51.433Z,80.21
2019-01-20T08:02:50.010Z,80.07
2019-01-20T08:03:48.548Z,80.45
2019-01-20T08:04:47.382Z,80.55
2019-01-20T08:05:45.993Z,80.64
2019-01-20T08:06:44.647Z,80.45
2019-01-20T08:07:43.439Z,80.45
2019-01-20T08:08:41.974Z,80.36
2019-01-20T08:09:40.506Z,80.45
2019-01-20T08:10:39.034Z,80.83
2019-01-20T08:11:37.606Z,80.83
2019-01-20T08:12:36.170Z,80.58
2019-01-20T08:13:35.016Z,80.4
2019-01-20T08:14:33.652Z,80.4
2019-01-20T08:18:12.530Z,80.49
2019-01-20T08:19:11.056Z,80.49
2019-01-20T08:20:09.602Z,80.26
2019-01-20T08:21:08.271Z,80.21
2019-01-20T08:22:07.037Z,80.21
2019-01-20T08:23:05.773Z,80.21
2019-01-20T08:24:04.291Z,80.4
2019-01-20T08:25:02.991Z,80.49
2019-01-20T08:26:01.588Z,80.4
2019-01-20T08:27:00.534Z,79.64
2019-01-20T08:28:00.051Z,80.3
2019-01-20T08:28:58.895Z,79.93
2019-01-20T08:29:57.526Z,79.55
2019-01-20T08:30:56.281Z,79.55
2019-01-20T08:31:55.143Z,79.64
2019-01-20T08:32:53.705Z,79.83
2019-01-20T08:33:52.276Z,80.02
2019-01-20T08:34:50.971Z,80.21
2019-01-20T08:35:49.723Z,80.77
2019-01-20T08:36:48.714Z,80.77
2019-01-20T08:37:47.611Z,80.49
2019-01-20T08:38:46.201Z,80.83
2019-01-20T08:39:44.740Z,81.34
2019-01-20T08:40:43.830Z,80.77
2019-01-20T08:41:42.386Z,81.15
2019-01-20T08:42:41.095Z,81.15
2019-01-20T08:43:39.813Z,80.96
2019-01-20T08:46:06.083Z,80.87
2019-01-20T08:47:05.110Z,80.87
2019-01-20T08:48:03.814Z,81.15
2019-01-20T08:49:02.341Z,80.77
2019-01-20T08:50:01.029Z,81.15
2019-01-20T08:51:08.075Z,80.49
2019-01-20T08:52:13.317Z,81.02
2019-01-20T08:53:12.447Z,80.96
2019-01-20T08:54:11.309Z,81.12
2019-01-20T08:55:09.922Z,80.96
2019-01-20T08:56:08.445Z,81.59
2019-01-20T08:57:07.185Z,80.77
2019-01-20T08:58:05.849Z,80.96
2019-01-20T08:59:04.406Z,80.96
2019-01-20T09:00:02.991Z,80.68
2019-01-20T09:01:01.564Z,80.96
2019-01-20T09:02:00.185Z,80.49
2019-01-20T09:02:58.954Z,80.49
2019-01-20T09:03:57.740Z,80.68
2019-01-20T09:04:56.269Z,80.4
2019-01-20T09:05:54.877Z,80.77
2019-01-20T09:06:53.533Z,80.77
2019-01-20T09:07:52.211Z,80.58
2019-01-20T09:08:51.071Z,81.06
2019-01-20T09:09:49.747Z,80.49
2019-01-20T09:10:48.305Z,80.77
2019-01-20T09:11:46.911Z,80.49
2019-01-20T09:12:45.703Z,80.93
2019-01-20T09:13:44.260Z,81.3
2019-01-20T09:14:43.142Z,81.53
2019-01-20T09:15:41.825Z,80.68
2019-01-20T09:16:40.408Z,80.55
2019-01-20T09:17:39.132Z,80.74
2019-01-20T09:18:37.750Z,81.3
2019-01-20T09:19:36.308Z,81.44
2019-01-20T09:20:35.207Z,81.4
2019-01-20T09:21:33.745Z,81.49
2019-01-20T09:22:32.275Z,81.96
2019-01-20T09:23:30.948Z,81.92
2019-01-20T09:24:29.564Z,81.96
2019-01-20T09:25:28.127Z,81.92
2019-01-20T09:26:26.662Z,81.92
2019-01-20T09:27:25.297Z,81.25
2019-01-20T09:28:23.886Z,81.44
2019-01-20T09:29:22.420Z,81.34
2019-01-20T09:30:20.962Z,80.96
2019-01-20T09:31:19.733Z,80.58
2019-01-20T09:32:18.266Z,81.06
2019-01-20T09:33:24.291Z,81.06
2019-01-20T09:34:15.624Z,80.49
2019-01-20T09:35:14.172Z,80.68
2019-01-20T09:36:12.780Z,80.49
2019-01-20T09:37:11.452Z,80.77
2019-01-20T09:38:09.973Z,81.15
2019-01-20T09:39:08.550Z,81.15
2019-01-20T09:40:07.073Z,80.49
2019-01-20T09:41:05.618Z,80.58
2019-01-20T09:42:04.137Z,80.58
2019-01-20T09:43:02.698Z,80.58
2019-01-20T09:44:01.210Z,80.3
2019-01-20T09:44:59.748Z,80.02
2019-01-20T09:45:58.330Z,80.3
2019-01-20T09:46:57.129Z,80.02
2019-01-20T09:47:55.822Z,79.17
2019-01-20T09:48:54.353Z,79.26
2019-01-20T09:49:53.103Z,79.64
2019-01-20T09:50:51.714Z,78.98
2019-01-20T09:51:50.274Z,79.45
2019-01-20T09:52:48.822Z,79.26
2019-01-20T09:53:47.366Z,78.79
2019-01-20T09:54:45.887Z,78.79
2019-01-20T09:55:44.442Z,78.79
2019-01-20T09:56:43.345Z,78.79
2019-01-20T09:57:41.891Z,78.79
2019-01-20T09:58:40.473Z,79.83
2019-01-20T09:59:39.161Z,80.11
2019-01-20T10:00:37.812Z,79.36
2019-01-20T10:01:36.433Z,79.36
2019-01-20T10:02:34.971Z,79.64
2019-01-20T10:03:33.552Z,79.45
2019-01-20T10:04:32.132Z,78.88
2019-01-20T10:05:30.689Z,78.88
2019-01-20T10:06:29.432Z,79.3
2019-01-20T10:09:09.664Z,78.83
2019-01-20T10:10:08.190Z,78.07
2019-01-20T10:11:06.831Z,78.26
2019-01-20T10:12:05.492Z,78.26
2019-01-20T10:13:04.024Z,77.78
2019-01-20T10:14:02.570Z,78.64
2019-01-20T10:15:01.090Z,78.26
2019-01-20T10:15:59.717Z,77.97
2019-01-20T10:16:58.240Z,78.26
2019-01-20T10:17:57.083Z,78.03
2019-01-20T10:18:55.747Z,78.59
2019-01-20T10:19:54.329Z,78.59
2019-01-20T10:20:53.047Z,78.54
2019-01-20T10:21:51.639Z,78.26
2019-01-20T10:22:50.175Z,78.35
2019-01-20T10:23:48.685Z,77.5
2019-01-20T10:24:47.825Z,77.88
2019-01-20T10:25:45.794Z,77.59
2019-01-20T10:26:44.322Z,77.5
2019-01-20T10:27:42.865Z,77.31
2019-01-20T10:28:41.684Z,76.65
2019-01-20T10:29:40.094Z,77.31
2019-01-20T10:30:38.756Z,77.88
2019-01-20T10:31:37.587Z,77.59
2019-01-20T10:32:36.091Z,77.78
2019-01-20T10:33:34.614Z,77.78
2019-01-20T10:34:33.291Z,77.69
2019-01-20T10:37:54.479Z,78.54
2019-01-20T10:38:53.249Z,78.54
2019-01-20T10:39:51.799Z,77.97
2019-01-20T10:40:50.372Z,77.88
2019-01-20T10:41:49.119Z,77.69
2019-01-20T10:42:49.830Z,78.54
2019-01-20T10:43:48.381Z,78.26
2019-01-20T10:44:47.186Z,78.16
2019-01-20T10:45:45.748Z,77.4
2019-01-20T10:46:44.314Z,77.69
2019-01-20T10:47:43.128Z,77.4
2019-01-20T10:48:41.848Z,77.97
2019-01-20T10:49:40.406Z,77.22
2019-01-20T10:50:38.963Z,77.31
2019-01-20T10:51:37.477Z,77.4
2019-01-20T10:55:16.572Z,77.4
2019-01-20T10:56:15.228Z,77.12
2019-01-20T10:57:13.936Z,77.12
2019-01-20T10:58:12.524Z,77.31
2019-01-20T10:59:11.380Z,77.4
2019-01-20T11:00:09.903Z,77.12
2019-01-20T11:01:08.443Z,77.25
2019-01-20T11:02:07.255Z,76.74
2019-01-20T11:03:05.903Z,76.93
2019-01-20T11:04:04.492Z,76.65
2019-01-20T11:05:03.565Z,76.55
2019-01-20T11:06:01.536Z,76.36
2019-01-20T11:07:00.168Z,76.55
2019-01-20T11:07:59.054Z,77.16
2019-01-20T11:08:57.713Z,76.68
2019-01-20T11:09:56.243Z,76.12
2019-01-20T11:10:54.976Z,76.84
2019-01-20T11:11:53.610Z,76.97
2019-01-20T11:14:16.342Z,77.12
2019-01-20T11:15:14.997Z,76.93
2019-01-20T11:16:13.721Z,77.06
2019-01-20T11:17:12.293Z,77.06
2019-01-20T11:18:10.903Z,76.27
2019-01-20T11:19:09.613Z,76.97
2019-01-20T11:20:08.212Z,76.21
2019-01-20T11:21:06.803Z,76.12
2019-01-20T11:22:05.604Z,76.03
2019-01-20T11:23:04.181Z,76.03
2019-01-20T11:24:02.749Z,75.84
2019-01-20T11:26:43.158Z,76.21
2019-01-20T11:27:41.706Z,76.03
2019-01-20T11:28:40.224Z,76.12
2019-01-20T11:29:39.116Z,75.93
2019-01-20T11:30:37.829Z,75.74
2019-01-20T11:31:36.459Z,76.12
2019-01-20T11:32:42.150Z,75.84
2019-01-20T11:33:33.667Z,75.45
2019-01-20T11:34:32.234Z,75.64
2019-01-20T11:35:30.825Z,75.84
2019-01-20T11:36:29.641Z,75.26
2019-01-20T11:37:28.205Z,74.98
2019-01-20T11:38:26.800Z,74.98
2019-01-20T11:39:25.626Z,75.07
2019-01-20T11:40:24.187Z,74.98
2019-01-20T11:41:22.752Z,75.07
2019-01-20T11:42:21.362Z,75.07
2019-01-20T11:43:19.913Z,74.88
2019-01-20T11:44:18.437Z,74.98
2019-01-20T11:45:17.040Z,74.98
2019-01-20T11:46:15.722Z,74.88
2019-01-20T11:47:14.429Z,74.88
2019-01-20T11:49:54.747Z,74.22
2019-01-20T11:50:53.361Z,74.41
2019-01-20T11:51:51.913Z,74.41
2019-01-20T11:52:50.464Z,74.45
2019-01-20T11:55:31.074Z,74.54
2019-01-20T11:59:10.017Z,74.6
2019-01-20T12:00:08.538Z,74.22
2019-01-20T12:01:07.355Z,74.13
2019-01-20T12:02:05.922Z,74.32
2019-01-20T12:03:04.452Z,74.03
2019-01-20T12:04:03.193Z,74.16
2019-01-20T12:05:01.847Z,74.41
2019-01-20T12:06:00.375Z,74.35
2019-01-20T12:06:58.899Z,73.75
2019-01-20T12:07:57.432Z,74.22
2019-01-20T12:08:56.004Z,74.22
2019-01-20T12:09:54.528Z,73.94
2019-01-20T12:10:53.087Z,74.51
2019-01-20T12:11:51.611Z,74.98
2019-01-20T12:12:50.413Z,74.98
2019-01-20T12:13:49.032Z,74.51
2019-01-20T12:14:47.749Z,74.45
2019-01-20T12:15:46.284Z,74.07
2019-01-20T12:16:45.163Z,74.07
2019-01-20T12:17:43.794Z,74.07
2019-01-20T12:18:42.307Z,73.88
2019-01-20T12:19:41.121Z,73.97
2019-01-20T12:20:39.800Z,73.75
2019-01-20T12:21:38.337Z,74.41
2019-01-20T12:22:36.922Z,74.35
2019-01-20T12:23:37.237Z,74.41
2019-01-20T12:24:35.813Z,73.94
2019-01-20T12:25:34.374Z,74.26
2019-01-20T12:26:33.038Z,74.32
2019-01-20T12:27:31.664Z,74.83
2019-01-20T12:28:30.223Z,74.79
2019-01-20T12:29:28.724Z,75.17
2019-01-20T12:30:27.292Z,74.41
2019-01-20T12:31:25.816Z,74.07
2019-01-20T12:35:04.535Z,74.64
2019-01-20T12:36:03.218Z,74.45
2019-01-20T12:37:01.932Z,74.07
2019-01-20T12:38:00.462Z,73.97
2019-01-20T12:38:59.111Z,74.16
2019-01-20T12:39:57.768Z,74.51
2019-01-20T12:40:56.304Z,74.13
2019-01-20T12:44:35.285Z,75.07
2019-01-20T12:45:33.909Z,74.54
2019-01-20T12:46:32.503Z,74.6
2019-01-20T12:47:31.138Z,74.22
2019-01-20T12:48:29.796Z,74.98
2019-01-20T12:49:28.401Z,74.98
2019-01-20T12:50:27.049Z,75.31
2019-01-20T12:51:28.562Z,74.73
2019-01-20T12:52:24.285Z,74.79
2019-01-20T12:53:22.811Z,74.45
2019-01-20T12:54:21.441Z,74.6
2019-01-20T12:55:20.006Z,73.88
2019-01-20T12:56:18.541Z,73.75
2019-01-20T12:57:17.617Z,73.94
2019-01-20T12:58:16.178Z,74.22
2019-01-20T12:59:14.824Z,74.32
2019-01-20T13:00:13.518Z,74.51
2019-01-20T13:01:12.046Z,74.22
2019-01-20T13:03:34.869Z,74.88
2019-01-20T13:04:33.485Z,74.88
2019-01-20T13:05:32.060Z,74.88
2019-01-20T13:06:30.588Z,75.26